• Join FlightAware (Why Join?)
  • Login
  • US Flag 
05:52AM EDT


 

Airport Tracker/Info


-or-


 

Live Flight TrackerFlight Track Log ✈ RPA4907 ✈ 01-Nov-2013 ✈ KBWI - KEWR

Flight Track Log - Related Links

Times and Time Zones

All times are in EDT time to prevent confusion due to time zone crossing. See the RPA4907 flight status page for this flight to view local times or setup timezone preferences in your user account.

Time Position Orientation Groundspeed Altitude Reporting Facility
EDT Latitude Longitude Course Direction KTS MPH feet Rate Location/Type
02:22PM 39.2667 -76.6667 38° Northeast 262 302 4,900  Level Potomac TRACON
02:22PM 39.2500 -76.5833 104° East 271 312 6,900 1,980 Climbing Potomac TRACON
02:24PM 39.2167 -76.4833 113° Southeast 283 326 8,900 1,860 Climbing Potomac TRACON
02:24PM 39.2167 -76.3667 90° East 328 377 10,700 1,080 Climbing Potomac TRACON
02:25PM 39.2500 -76.2500 70° East 361 415 11,000 600 Climbing Potomac TRACON
02:26PM 39.5472 -76.0739 70° East  Level Estimated
02:26PM 39.2833 -76.1333 70° East 371 427 11,900  Level Potomac TRACON
02:28PM 39.3833 -76.0000 46° Northeast 387 445 12,000 -60 Climbing Philadelphia TRACON
02:29PM 39.4500 -75.9000 49° Northeast 369 425 11,800 -780 Descending Philadelphia TRACON
02:30PM 39.5167 -75.8167 44° Northeast 334 384 10,500 -1,380 Descending Philadelphia TRACON
02:31PM 39.5833 -75.7333 44° Northeast 326 375 9,100 -780 Descending Philadelphia TRACON
02:32PM 39.6500 -75.6500 44° Northeast 360 414 9,000 -60 Descending Philadelphia TRACON
02:33PM 39.7000 -75.5167 64° Northeast 368 423 9,000  Level Philadelphia TRACON
02:34PM 39.7333 -75.4000 70° East 341 392 9,000 -60 Level Philadelphia TRACON
02:35PM 39.7667 -75.2833 70° East 347 399 8,900 -600 Descending Philadelphia TRACON
02:36PM 39.8000 -75.1833 67° East 322 371 7,900 -960 Descending Philadelphia TRACON
02:37PM 39.8333 -75.0667 70° East 322 371 7,000 -480 Descending Philadelphia TRACON
02:38PM 39.8833 -74.9500 61° Northeast 322 371 7,000  Level Philadelphia TRACON
02:39PM 39.9500 -74.8667 44° Northeast 323 372 7,000  Level Philadelphia TRACON
02:40PM 40.0000 -74.7833 52° Northeast 323 372 7,000  Level Philadelphia TRACON
02:41PM 40.0667 -74.7000 44° Northeast 321 369 7,000  Level New York TRACON
02:42PM 40.1167 -74.6333 46° Northeast 323 372 7,000  Level New York TRACON
02:43PM 40.2000 -74.6000 17° North 296 341 7,000 -180 Level New York TRACON
02:44PM 40.2833 -74.5833 North 299 344 6,700 -540 Descending New York TRACON
02:45PM 40.3667 -74.5833 360° North 297 342 6,000 -420 Descending New York TRACON
02:46PM 40.4333 -74.5667 11° North 282 325 6,000  Level New York TRACON
02:47PM 40.5333 -74.5667 360° North 294 338 6,000  Level New York TRACON
02:48PM 40.6000 -74.5500 11° North 285 328 6,000 -300 Level New York TRACON
02:49PM 40.6833 -74.5333 North 283 326 5,500 -480 Descending New York TRACON
02:50PM 40.7500 -74.5333 360° North 249 287 5,100 -300 Descending New York TRACON
02:51PM 40.8167 -74.5167 11° North 248 285 5,000  Descending New York TRACON
02:52PM 40.8833 -74.4833 21° North 267 307 5,100  Climbing New York TRACON
02:53PM 40.9500 -74.4167 37° Northeast 276 318 5,000 -240 Descending New York TRACON
02:54PM 40.9500 -74.3167 90° East 274 315 4,700 -480 Descending New York TRACON
02:55PM 40.9500 -74.2333 90° East 267 307 4,100 -420 Descending New York TRACON
02:56PM 40.9333 -74.1333 102° East 268 308 4,000 -240 Descending New York TRACON
02:57PM 40.8833 -74.0833 143° Southeast 202 232 3,700 -480 Descending New York TRACON
02:58PM 40.8500 -74.0667 159° South 189 217 3,100 -720 Descending New York TRACON
02:59PM 40.8000 -74.1000 207° Southwest 174 200 2,400 -900 Descending New York TRACON
03:00PM 40.7667 -74.1167 201° Southwest 163 188 1,500 -840 Descending New York TRACON
03:01PM 40.7333 -74.1333 201° Southwest 120 138 800 -720 Descending New York TRACON